createdAt,value
2018-02-04T00:02:18.548Z,3.45
2018-02-04T00:04:52.972Z,8.10
2018-02-04T00:07:28.193Z,7.28
2018-02-04T00:10:02.756Z,5.60
2018-02-04T00:12:37.296Z,8.52
2018-02-04T00:15:11.883Z,7.50
2018-02-04T00:17:46.404Z,4.82
2018-02-04T00:20:20.874Z,3.75
2018-02-04T00:22:55.242Z,6.93
2018-02-04T00:25:29.793Z,9.05
2018-02-04T00:28:04.361Z,10.10
2018-02-04T00:30:39.574Z,8.70
2018-02-04T00:33:13.913Z,8.93
2018-02-04T00:35:48.333Z,10.20
2018-02-04T00:38:23.468Z,8.25
2018-02-04T00:40:58.641Z,7.72
2018-02-04T00:43:32.968Z,6.93
2018-02-04T00:46:08.195Z,6.40
2018-02-04T00:48:43.332Z,5.45
2018-02-04T00:51:17.947Z,4.53
2018-02-04T00:53:52.271Z,4.62
2018-02-04T00:56:26.784Z,5.35
2018-02-04T00:59:01.237Z,4.57
2018-02-04T01:01:35.687Z,3.25
2018-02-04T01:04:10.282Z,3.30
2018-02-04T01:06:45.720Z,3.37
2018-02-04T01:09:20.196Z,2.20
2018-02-04T01:11:55.520Z,1.92
2018-02-04T01:14:30.860Z,1.70
2018-02-04T01:17:05.391Z,1.48
2018-02-04T01:19:40.701Z,1.45
2018-02-04T01:22:15.079Z,1.85
2018-02-04T01:24:49.678Z,1.77
2018-02-04T01:27:24.161Z,1.65
2018-02-04T01:29:58.635Z,1.27
2018-02-04T01:32:33.052Z,2.30
2018-02-04T01:35:07.634Z,2.10
2018-02-04T01:37:42.172Z,2.78
2018-02-04T01:40:17.456Z,2.40
2018-02-04T01:42:51.860Z,3.00
2018-02-04T01:45:26.426Z,2.10
2018-02-04T01:48:07.871Z,1.60
2018-02-04T01:50:42.222Z,2.25
2018-02-04T01:53:16.864Z,1.90
2018-02-04T01:55:51.568Z,1.73
2018-02-04T01:58:26.032Z,1.30
2018-02-04T02:01:00.549Z,2.35
2018-02-04T02:03:35.180Z,2.15
2018-02-04T02:06:09.804Z,2.28
2018-02-04T02:08:45.136Z,2.85
2018-02-04T02:11:19.592Z,2.50
2018-02-04T02:13:54.446Z,3.55
2018-02-04T02:16:29.739Z,3.22
2018-02-04T02:19:04.136Z,4.10
2018-02-04T02:21:39.021Z,3.75
2018-02-04T02:24:13.536Z,4.97
2018-02-04T02:26:47.945Z,4.45
2018-02-04T02:29:22.400Z,3.67
2018-02-04T02:31:56.781Z,5.12
2018-02-04T02:34:31.228Z,5.43
2018-02-04T02:37:06.543Z,4.72
2018-02-04T02:39:40.937Z,4.07
2018-02-04T02:42:15.328Z,4.50
2018-02-04T02:44:49.744Z,4.72
2018-02-04T02:47:25.099Z,4.68
2018-02-04T02:50:00.356Z,5.22
2018-02-04T02:52:35.607Z,5.25
2018-02-04T02:55:10.046Z,5.20
2018-02-04T02:57:44.623Z,5.47
2018-02-04T03:00:19.876Z,4.45
2018-02-04T03:02:54.232Z,4.97
2018-02-04T03:05:28.643Z,4.65
2018-02-04T03:08:03.295Z,5.12
2018-02-04T03:10:37.768Z,4.05
2018-02-04T03:13:12.180Z,5.15
2018-02-04T03:15:46.730Z,3.17
2018-02-04T03:18:21.260Z,3.97
2018-02-04T03:20:55.659Z,3.15
2018-02-04T03:23:29.963Z,4.35
2018-02-04T03:26:04.380Z,4.22
2018-02-04T03:28:39.021Z,3.60
2018-02-04T03:31:13.509Z,4.05
2018-02-04T03:33:48.104Z,4.15
2018-02-04T03:36:22.606Z,4.60
2018-02-04T03:38:56.980Z,5.10
2018-02-04T03:41:31.411Z,6.07
2018-02-04T03:44:06.000Z,4.60
2018-02-04T03:46:40.572Z,5.50
2018-02-04T03:49:15.923Z,5.40
2018-02-04T03:51:51.060Z,4.87
2018-02-04T03:54:25.609Z,4.75
2018-02-04T03:57:01.604Z,4.70
2018-02-04T03:59:35.983Z,5.37
2018-02-04T04:02:10.336Z,3.85
2018-02-04T04:04:44.731Z,4.80
2018-02-04T04:07:19.176Z,4.20
2018-02-04T04:09:53.704Z,5.05
2018-02-04T04:12:28.164Z,4.60
2018-02-04T04:15:02.544Z,4.95
2018-02-04T04:17:37.078Z,4.80
2018-02-04T04:20:11.619Z,4.80
2018-02-04T04:22:46.849Z,5.15
2018-02-04T04:25:21.359Z,4.85
2018-02-04T04:27:55.813Z,3.97
2018-02-04T04:30:30.347Z,4.45
2018-02-04T04:33:04.829Z,4.10
2018-02-04T04:35:39.187Z,4.30
2018-02-04T04:38:13.507Z,5.10
2018-02-04T04:40:47.961Z,4.07
2018-02-04T04:43:22.401Z,3.95
2018-02-04T04:45:56.866Z,4.30
2018-02-04T04:48:31.324Z,3.95
2018-02-04T04:51:05.771Z,4.25
2018-02-04T04:53:40.475Z,4.20
2018-02-04T04:56:14.918Z,3.47
2018-02-04T04:58:49.378Z,4.55
2018-02-04T05:01:23.844Z,4.62
2018-02-04T05:03:58.189Z,2.03
2018-02-04T05:06:32.657Z,4.05
2018-02-04T05:09:07.244Z,4.40
2018-02-04T05:11:41.600Z,4.80
2018-02-04T05:14:16.076Z,4.30
2018-02-04T05:16:51.298Z,3.53
2018-02-04T05:19:26.573Z,4.70
2018-02-04T05:22:01.071Z,3.85
2018-02-04T05:24:35.595Z,3.62
2018-02-04T05:27:10.061Z,3.12
2018-02-04T05:29:44.440Z,3.08
2018-02-04T05:32:18.908Z,3.17
2018-02-04T05:34:53.348Z,4.00
2018-02-04T05:37:27.836Z,3.78
2018-02-04T05:40:02.324Z,3.35
2018-02-04T05:42:36.800Z,4.15
2018-02-04T05:45:11.341Z,3.50
2018-02-04T05:47:46.624Z,3.60
2018-02-04T05:50:21.079Z,4.45
2018-02-04T05:52:55.584Z,5.32
2018-02-04T05:55:30.080Z,4.45
2018-02-04T05:58:04.581Z,4.30
2018-02-04T06:00:38.980Z,4.70
2018-02-04T06:03:13.515Z,5.30
2018-02-04T06:05:47.937Z,6.22
2018-02-04T06:08:22.331Z,5.12
2018-02-04T06:10:56.695Z,6.37
2018-02-04T06:13:31.252Z,5.80
2018-02-04T06:16:05.586Z,5.03
2018-02-04T06:18:40.117Z,6.37
2018-02-04T06:21:15.438Z,6.57
2018-02-04T06:23:49.776Z,5.72
2018-02-04T06:26:24.923Z,6.53
2018-02-04T06:28:59.280Z,6.90
2018-02-04T06:31:33.676Z,6.05
2018-02-04T06:34:08.375Z,4.47
2018-02-04T06:36:42.705Z,5.40
2018-02-04T06:39:17.184Z,6.20
2018-02-04T06:41:52.412Z,5.00
2018-02-04T06:44:26.916Z,4.55
2018-02-04T06:47:01.395Z,4.35
2018-02-04T06:49:35.747Z,3.55
2018-02-04T06:52:10.361Z,4.97
2018-02-04T06:54:44.774Z,4.37
2018-02-04T06:57:19.210Z,4.32
2018-02-04T06:59:53.585Z,4.55
2018-02-04T07:02:28.357Z,4.18
2018-02-04T07:05:02.668Z,4.47
2018-02-04T07:07:37.049Z,4.72
2018-02-04T07:10:11.451Z,5.47
2018-02-04T07:12:46.039Z,6.12
2018-02-04T07:15:21.124Z,6.55
2018-02-04T07:17:56.600Z,5.97
2018-02-04T07:20:31.126Z,3.75
2018-02-04T07:23:05.610Z,5.47
2018-02-04T07:25:40.845Z,8.95
2018-02-04T07:28:15.214Z,8.05
2018-02-04T07:30:49.708Z,7.15
2018-02-04T07:33:24.293Z,8.75
2018-02-04T07:35:58.782Z,8.55
2018-02-04T07:38:33.988Z,8.18
2018-02-04T07:41:08.526Z,7.22
2018-02-04T07:43:43.040Z,8.40
2018-02-04T07:46:17.513Z,8.60
2018-02-04T07:48:52.055Z,6.68
2018-02-04T07:51:26.527Z,8.77
2018-02-04T07:54:00.904Z,9.07
2018-02-04T07:56:35.420Z,9.18
2018-02-04T07:59:09.765Z,6.85
2018-02-04T08:01:44.296Z,8.35
2018-02-04T08:04:18.914Z,8.15
2018-02-04T08:06:53.350Z,7.78
2018-02-04T08:09:28.002Z,9.43
2018-02-04T08:12:02.460Z,6.95
2018-02-04T08:14:37.746Z,8.77
2018-02-04T08:17:12.089Z,8.02
2018-02-04T08:19:46.768Z,7.97
2018-02-04T08:22:21.196Z,6.55
2018-02-04T08:24:55.756Z,7.57
2018-02-04T08:27:30.310Z,9.63
2018-02-04T08:30:04.703Z,7.55
2018-02-04T08:32:39.982Z,7.68
2018-02-04T08:35:14.416Z,7.65
2018-02-04T08:37:48.980Z,5.55
2018-02-04T08:40:23.440Z,6.25
2018-02-04T08:42:57.892Z,7.07
2018-02-04T08:45:32.300Z,8.82
2018-02-04T08:48:06.832Z,7.40
2018-02-04T08:50:41.560Z,9.05
2018-02-04T08:53:16.094Z,10.00
2018-02-04T08:55:50.505Z,7.80
2018-02-04T08:58:24.910Z,9.65
2018-02-04T09:00:59.443Z,5.95
2018-02-04T09:03:33.844Z,7.90
2018-02-04T09:06:08.273Z,7.68
2018-02-04T09:08:42.658Z,8.27
2018-02-04T09:11:17.157Z,7.47
2018-02-04T09:13:51.805Z,8.25
2018-02-04T09:16:26.188Z,6.47
2018-02-04T09:19:00.660Z,6.15
2018-02-04T09:21:35.178Z,7.32
2018-02-04T09:24:09.498Z,8.65
2018-02-04T09:26:44.096Z,5.40
2018-02-04T09:29:19.397Z,6.07
2018-02-04T09:31:53.972Z,5.90
2018-02-04T09:34:28.348Z,7.70
2018-02-04T09:37:03.601Z,5.20
2018-02-04T09:39:38.067Z,7.55
2018-02-04T09:42:13.518Z,7.45
2018-02-04T09:44:47.978Z,6.87
2018-02-04T09:47:23.320Z,6.55
2018-02-04T09:49:57.761Z,4.70
2018-02-04T09:52:32.292Z,6.72
2018-02-04T09:55:06.836Z,5.15
2018-02-04T09:57:42.036Z,2.62
2018-02-04T10:00:16.588Z,5.32
2018-02-04T10:02:51.058Z,7.95
2018-02-04T10:05:25.775Z,7.60
2018-02-04T10:08:00.404Z,5.60
2018-02-04T10:10:34.770Z,5.60
2018-02-04T10:13:09.344Z,3.53
2018-02-04T10:15:44.521Z,4.72
2018-02-04T10:18:19.039Z,5.82
2018-02-04T10:20:53.484Z,2.65
2018-02-04T10:23:27.968Z,6.60
2018-02-04T10:26:02.504Z,4.45
2018-02-04T10:28:37.041Z,8.52
2018-02-04T10:31:11.596Z,4.95
2018-02-04T10:33:46.163Z,6.85
2018-02-04T10:36:20.688Z,2.80
2018-02-04T10:38:55.322Z,6.50
2018-02-04T10:41:29.847Z,6.68
2018-02-04T10:44:04.295Z,7.60
2018-02-04T10:46:38.780Z,9.98
2018-02-04T10:49:13.308Z,6.53
2018-02-04T10:51:53.529Z,7.65
2018-02-04T10:54:28.136Z,3.95
2018-02-04T10:57:02.569Z,5.65
2018-02-04T10:59:36.903Z,6.57
2018-02-04T11:02:12.168Z,4.55
2018-02-04T11:04:46.611Z,7.53
2018-02-04T11:07:21.103Z,7.25
2018-02-04T11:09:55.588Z,6.70
2018-02-04T11:12:29.968Z,6.37
2018-02-04T11:15:04.288Z,8.48
2018-02-04T11:17:40.623Z,6.57
2018-02-04T11:20:15.137Z,8.63
2018-02-04T11:22:49.624Z,5.72
2018-02-04T11:25:24.038Z,3.05
2018-02-04T11:27:58.552Z,1.12
2018-02-04T11:30:33.119Z,5.35
2018-02-04T11:33:07.493Z,8.20
2018-02-04T11:35:41.901Z,5.90
2018-02-04T11:38:16.428Z,7.97
2018-02-04T11:40:51.045Z,6.70
2018-02-04T11:43:25.503Z,5.95
2018-02-04T11:45:59.935Z,4.35
2018-02-04T11:48:34.427Z,7.87
2018-02-04T11:51:08.894Z,8.18
2018-02-04T11:53:43.407Z,7.00
2018-02-04T11:56:17.932Z,6.35
2018-02-04T11:58:52.269Z,6.28
2018-02-04T12:01:26.759Z,9.55
2018-02-04T12:04:01.410Z,8.93
2018-02-04T12:06:36.645Z,5.45
2018-02-04T12:09:11.036Z,3.00
2018-02-04T12:11:45.490Z,7.40
2018-02-04T12:14:19.949Z,6.62
2018-02-04T12:16:54.376Z,9.90
2018-02-04T12:19:28.853Z,6.95
2018-02-04T12:22:03.412Z,7.70
2018-02-04T12:24:37.906Z,7.85
2018-02-04T12:27:13.349Z,9.00
2018-02-04T12:29:47.809Z,7.87
2018-02-04T12:32:22.257Z,7.12
2018-02-04T12:34:56.804Z,7.00
2018-02-04T12:37:31.536Z,8.10
2018-02-04T12:40:06.764Z,7.07
2018-02-04T12:42:41.724Z,7.80
2018-02-04T12:45:16.264Z,6.43
2018-02-04T12:47:50.957Z,7.93
2018-02-04T12:50:25.338Z,9.73
2018-02-04T12:52:59.729Z,7.95
2018-02-04T12:55:34.297Z,9.77
2018-02-04T12:58:08.837Z,9.88
2018-02-04T13:00:43.459Z,5.90
2018-02-04T13:03:17.918Z,7.82
2018-02-04T13:05:52.562Z,8.70
2018-02-04T13:08:26.894Z,4.32
2018-02-04T13:11:01.414Z,6.87
2018-02-04T13:13:36.010Z,6.93
2018-02-04T13:16:10.764Z,8.00
2018-02-04T13:18:45.138Z,7.40
2018-02-04T13:21:19.783Z,8.50
2018-02-04T13:23:54.103Z,6.80
2018-02-04T13:26:28.697Z,7.50
2018-02-04T13:29:03.297Z,7.95
2018-02-04T13:31:38.561Z,7.50
2018-02-04T13:34:13.059Z,3.40
2018-02-04T13:36:47.666Z,8.95
2018-02-04T13:39:22.089Z,8.85
2018-02-04T13:41:56.795Z,7.15
2018-02-04T13:44:32.185Z,6.82
2018-02-04T13:47:07.494Z,7.18
2018-02-04T13:49:42.103Z,2.15
2018-02-04T13:52:16.600Z,7.70
2018-02-04T13:54:51.190Z,6.28
2018-02-04T13:57:25.667Z,7.25
2018-02-04T14:00:00.974Z,6.12
2018-02-04T14:02:35.416Z,5.70
2018-02-04T14:05:09.965Z,7.45
2018-02-04T14:07:45.189Z,2.80
2018-02-04T14:10:19.556Z,8.25
2018-02-04T14:12:53.964Z,4.95
2018-02-04T14:15:28.389Z,10.38
2018-02-04T14:18:02.897Z,8.85
2018-02-04T14:20:37.281Z,8.00
2018-02-04T14:23:11.620Z,7.90
2018-02-04T14:25:47.216Z,4.30
2018-02-04T14:28:21.608Z,8.07
2018-02-04T14:30:56.695Z,2.83
2018-02-04T14:33:31.024Z,8.70
2018-02-04T14:36:05.385Z,9.65
2018-02-04T14:38:39.968Z,9.07
2018-02-04T14:41:15.235Z,8.45
2018-02-04T14:43:49.811Z,6.80
2018-02-04T14:46:24.443Z,7.18
2018-02-04T14:48:58.908Z,8.07
2018-02-04T14:51:34.228Z,7.65
2018-02-04T14:54:09.528Z,6.85
2018-02-04T14:56:43.920Z,12.27
2018-02-04T14:59:18.293Z,7.22
2018-02-04T15:01:52.684Z,6.00
2018-02-04T15:04:27.167Z,7.05
2018-02-04T15:07:01.650Z,2.90
2018-02-04T15:09:36.868Z,8.15
2018-02-04T15:12:11.253Z,7.87
2018-02-04T15:14:45.728Z,7.95
2018-02-04T15:17:20.245Z,7.50
2018-02-04T15:19:54.756Z,7.20
2018-02-04T15:22:29.204Z,7.82
2018-02-04T15:25:03.726Z,5.70
2018-02-04T15:27:38.246Z,6.45
2018-02-04T15:30:12.963Z,6.50
2018-02-04T15:32:48.108Z,6.60
2018-02-04T15:35:22.456Z,7.43
2018-02-04T15:37:56.956Z,6.32
2018-02-04T15:40:31.508Z,6.72
2018-02-04T15:43:05.867Z,7.50
2018-02-04T15:45:40.211Z,5.15
2018-02-04T15:48:14.724Z,7.43
2018-02-04T15:50:49.288Z,8.48
2018-02-04T15:53:23.860Z,8.30
2018-02-04T15:55:58.298Z,6.15
2018-02-04T15:58:32.671Z,6.10
2018-02-04T16:01:07.263Z,7.70
2018-02-04T16:03:41.723Z,5.32
2018-02-04T16:06:16.096Z,8.05
2018-02-04T16:08:50.693Z,8.20
2018-02-04T16:11:25.217Z,9.10
2018-02-04T16:13:59.705Z,7.65
2018-02-04T16:16:34.121Z,7.05
2018-02-04T16:19:08.653Z,8.02
2018-02-04T16:21:43.210Z,7.35
2018-02-04T16:24:17.682Z,8.35
2018-02-04T16:26:52.125Z,5.20
2018-02-04T16:29:27.305Z,9.10
2018-02-04T16:32:01.692Z,6.18
2018-02-04T16:34:36.104Z,7.87
2018-02-04T16:37:10.567Z,8.50
2018-02-04T16:39:45.136Z,4.18
2018-02-04T16:42:21.886Z,8.80
2018-02-04T16:44:57.097Z,2.67
2018-02-04T16:47:31.526Z,5.03
2018-02-04T16:50:06.066Z,5.18
2018-02-04T16:52:40.597Z,5.87
2018-02-04T16:55:15.138Z,6.97
2018-02-04T16:57:49.648Z,7.60
2018-02-04T17:00:24.147Z,7.53
2018-02-04T17:02:58.653Z,2.78
2018-02-04T17:05:33.314Z,7.30
2018-02-04T17:08:07.760Z,6.18
2018-02-04T17:10:42.256Z,5.80
2018-02-04T17:13:16.774Z,4.55
2018-02-04T17:15:51.252Z,6.28
2018-02-04T17:18:25.784Z,8.60
2018-02-04T17:21:00.356Z,8.90
2018-02-04T17:23:34.945Z,6.75
2018-02-04T17:26:10.039Z,5.70
2018-02-04T17:28:45.402Z,6.55
2018-02-04T17:31:20.635Z,5.25
2018-02-04T17:33:55.154Z,7.35
2018-02-04T17:36:29.619Z,7.10
2018-02-04T17:39:04.117Z,7.40
2018-02-04T17:41:38.516Z,5.72
2018-02-04T17:44:13.891Z,6.57
2018-02-04T17:46:48.880Z,6.97
2018-02-04T17:49:23.439Z,6.37
2018-02-04T17:51:57.760Z,9.48
2018-02-04T17:54:32.113Z,4.03
2018-02-04T17:57:07.428Z,8.20
2018-02-04T17:59:41.925Z,8.05
2018-02-04T18:02:16.623Z,4.07
2018-02-04T18:04:51.781Z,7.68
2018-02-04T18:07:26.901Z,7.93
2018-02-04T18:10:01.284Z,6.70
2018-02-04T18:12:35.663Z,8.73
2018-02-04T18:15:10.013Z,8.65
2018-02-04T18:17:44.494Z,6.45
2018-02-04T18:20:18.795Z,8.52
2018-02-04T18:22:53.457Z,8.23
2018-02-04T18:25:27.972Z,8.90
2018-02-04T18:28:02.566Z,11.23
2018-02-04T18:30:37.194Z,9.32
2018-02-04T18:33:11.715Z,10.60
2018-02-04T18:35:46.985Z,9.38
2018-02-04T18:38:21.314Z,11.10
2018-02-04T18:40:55.947Z,9.70
2018-02-04T18:43:30.547Z,8.20
2018-02-04T18:46:04.998Z,8.40
2018-02-04T18:48:39.626Z,7.87
2018-02-04T18:51:14.174Z,7.20
2018-02-04T18:53:48.604Z,7.00
2018-02-04T18:56:23.248Z,5.70
2018-02-04T18:58:57.739Z,7.43
2018-02-04T19:01:32.156Z,1.85
2018-02-04T19:04:06.760Z,3.58
2018-02-04T19:06:41.097Z,6.37
2018-02-04T19:09:15.720Z,7.70
2018-02-04T19:11:50.256Z,5.32
2018-02-04T19:14:24.867Z,6.75
2018-02-04T19:16:59.304Z,5.57
2018-02-04T19:19:33.667Z,5.85
2018-02-04T19:22:08.193Z,7.05
2018-02-04T19:24:42.852Z,6.62
2018-02-04T19:27:17.353Z,5.75
2018-02-04T19:29:51.864Z,6.30
2018-02-04T19:32:26.469Z,5.72
2018-02-04T19:35:00.970Z,2.08
2018-02-04T19:37:35.518Z,5.53
2018-02-04T19:40:10.246Z,5.00
2018-02-04T19:42:44.723Z,7.25
2018-02-04T19:45:19.242Z,6.62
2018-02-04T19:47:53.639Z,4.93
2018-02-04T19:50:27.937Z,4.95
2018-02-04T19:53:02.564Z,5.05
2018-02-04T19:55:36.920Z,6.70
2018-02-04T19:58:11.529Z,2.10
2018-02-04T20:00:46.036Z,4.60
2018-02-04T20:03:20.615Z,7.12
2018-02-04T20:05:55.046Z,5.85
2018-02-04T20:08:29.588Z,5.53
2018-02-04T20:11:04.072Z,4.85
2018-02-04T20:13:38.570Z,2.78
2018-02-04T20:16:13.337Z,5.30
2018-02-04T20:18:47.773Z,5.60
2018-02-04T20:21:22.264Z,7.40
2018-02-04T20:23:57.398Z,5.82
2018-02-04T20:26:31.906Z,5.03
2018-02-04T20:29:06.429Z,6.07
2018-02-04T20:31:40.957Z,4.05
2018-02-04T20:34:27.312Z,4.60
2018-02-04T20:37:01.977Z,6.30
2018-02-04T20:39:36.470Z,8.65
2018-02-04T20:42:10.878Z,5.75
2018-02-04T20:44:45.394Z,5.50
2018-02-04T20:47:19.970Z,3.67
2018-02-04T20:49:54.286Z,3.15
2018-02-04T20:52:28.803Z,3.17
2018-02-04T20:55:04.028Z,4.85
2018-02-04T20:57:38.568Z,5.00
2018-02-04T21:00:13.147Z,5.60
2018-02-04T21:02:48.336Z,5.15
2018-02-04T21:05:22.798Z,3.33
2018-02-04T21:07:57.213Z,4.60
2018-02-04T21:10:31.812Z,4.45
2018-02-04T21:13:06.172Z,5.30
2018-02-04T21:15:40.597Z,3.95
2018-02-04T21:18:15.067Z,4.37
2018-02-04T21:20:49.516Z,3.42
2018-02-04T21:23:24.006Z,5.12
2018-02-04T21:25:58.509Z,6.45
2018-02-04T21:28:32.928Z,5.93
2018-02-04T21:31:07.406Z,4.53
2018-02-04T21:33:41.812Z,5.30
2018-02-04T21:36:17.071Z,3.83
2018-02-04T21:38:51.400Z,2.22
2018-02-04T21:41:25.754Z,4.47
2018-02-04T21:44:00.129Z,2.75
2018-02-04T21:46:34.582Z,3.25
2018-02-04T21:49:08.982Z,4.25
2018-02-04T21:51:44.108Z,3.37
2018-02-04T21:54:18.613Z,5.07
2018-02-04T21:56:53.175Z,4.80
2018-02-04T21:59:27.656Z,4.18
2018-02-04T22:02:02.154Z,4.25
2018-02-04T22:04:36.519Z,4.18
2018-02-04T22:07:11.777Z,4.07
2018-02-04T22:09:46.160Z,4.35
2018-02-04T22:12:20.625Z,4.30
2018-02-04T22:14:55.109Z,4.15
2018-02-04T22:17:29.668Z,5.30
2018-02-04T22:20:04.037Z,4.45
2018-02-04T22:22:38.600Z,5.15
2018-02-04T22:25:13.111Z,5.85
2018-02-04T22:27:47.696Z,4.82
2018-02-04T22:30:22.085Z,4.55
2018-02-04T22:32:56.570Z,3.95
2018-02-04T22:35:31.034Z,4.28
2018-02-04T22:38:06.436Z,5.45
2018-02-04T22:40:40.825Z,4.05
2018-02-04T22:43:15.162Z,4.65
2018-02-04T22:45:49.634Z,4.35
2018-02-04T22:48:24.092Z,5.43
2018-02-04T22:50:58.586Z,4.28
2018-02-04T22:53:32.894Z,4.45
2018-02-04T22:56:07.356Z,3.25
2018-02-04T22:58:41.747Z,5.35
2018-02-04T23:01:16.200Z,2.25
2018-02-04T23:03:50.587Z,4.07
2018-02-04T23:06:25.863Z,3.42
2018-02-04T23:09:00.472Z,3.72
2018-02-04T23:11:34.936Z,5.43
2018-02-04T23:14:09.662Z,4.35
2018-02-04T23:16:44.263Z,3.47
2018-02-04T23:19:18.668Z,3.40
2018-02-04T23:21:53.191Z,4.65
2018-02-04T23:24:27.679Z,3.92
2018-02-04T23:27:02.226Z,3.15
2018-02-04T23:29:36.752Z,3.95
2018-02-04T23:32:11.351Z,3.58
2018-02-04T23:34:45.732Z,3.83
2018-02-04T23:37:20.272Z,3.83
2018-02-04T23:39:55.495Z,3.50
2018-02-04T23:42:30.195Z,4.03
2018-02-04T23:45:04.608Z,3.17
2018-02-04T23:47:39.120Z,3.47
2018-02-04T23:50:13.634Z,3.78
2018-02-04T23:52:47.968Z,4.00
2018-02-04T23:55:22.696Z,4.05
2018-02-04T23:57:57.265Z,4.50
